sensor_id;sensor_type;location;lat;lon;timestamp;temperature;humidity
60701;DHT22;46541;49.894;10.886;2023-08-31T00:01:06;15.80;99.90
60701;DHT22;46541;49.894;10.886;2023-08-31T00:03:33;15.70;99.90
60701;DHT22;46541;49.894;10.886;2023-08-31T00:06:04;15.70;99.90
60701;DHT22;46541;49.894;10.886;2023-08-31T00:08:30;15.70;99.90
60701;DHT22;46541;49.894;10.886;2023-08-31T00:10:59;15.70;99.90
60701;DHT22;46541;49.894;10.886;2023-08-31T00:13:27;15.70;99.90
60701;DHT22;46541;49.894;10.886;2023-08-31T00:15:56;15.60;99.90
60701;DHT22;46541;49.894;10.886;2023-08-31T00:18:26;15.60;99.90
60701;DHT22;46541;49.894;10.886;2023-08-31T00:20:53;15.50;99.90
60701;DHT22;46541;49.894;10.886;2023-08-31T00:23:20;15.50;99.90
60701;DHT22;46541;49.894;10.886;2023-08-31T00:25:47;15.40;99.90
60701;DHT22;46541;49.894;10.886;2023-08-31T00:28:17;15.40;99.90
60701;DHT22;46541;49.894;10.886;2023-08-31T00:30:45;15.30;99.90
60701;DHT22;46541;49.894;10.886;2023-08-31T00:33:13;15.30;99.90
60701;DHT22;46541;49.894;10.886;2023-08-31T00:35:41;15.30;99.90
60701;DHT22;46541;49.894;10.886;2023-08-31T00:38:13;15.30;99.90
60701;DHT22;46541;49.894;10.886;2023-08-31T00:40:44;15.30;99.90
60701;DHT22;46541;49.894;10.886;2023-08-31T00:43:13;15.30;99.90
60701;DHT22;46541;49.894;10.886;2023-08-31T00:45:45;15.30;99.90
60701;DHT22;46541;49.894;10.886;2023-08-31T00:48:15;15.30;99.90
60701;DHT22;46541;49.894;10.886;2023-08-31T00:50:46;15.30;99.90
60701;DHT22;46541;49.894;10.886;2023-08-31T00:53:14;15.30;99.90
60701;DHT22;46541;49.894;10.886;2023-08-31T00:55:42;15.30;99.90
60701;DHT22;46541;49.894;10.886;2023-08-31T00:58:10;15.30;99.90
60701;DHT22;46541;49.894;10.886;2023-08-31T01:00:53;15.20;99.90
60701;DHT22;46541;49.894;10.886;2023-08-31T01:03:33;15.20;99.90
60701;DHT22;46541;49.894;10.886;2023-08-31T01:06:07;15.20;99.90
60701;DHT22;46541;49.894;10.886;2023-08-31T01:08:53;15.20;99.90
60701;DHT22;46541;49.894;10.886;2023-08-31T01:11:34;15.10;99.90
60701;DHT22;46541;49.894;10.886;2023-08-31T01:14:16;15.10;99.90
60701;DHT22;46541;49.894;10.886;2023-08-31T01:16:47;15.00;99.90
60701;DHT22;46541;49.894;10.886;2023-08-31T01:19:44;15.00;99.90
60701;DHT22;46541;49.894;10.886;2023-08-31T01:22:18;15.00;99.90
60701;DHT22;46541;49.894;10.886;2023-08-31T01:24:48;15.00;99.90
60701;DHT22;46541;49.894;10.886;2023-08-31T01:27:15;15.00;99.90
60701;DHT22;46541;49.894;10.886;2023-08-31T01:29:42;15.00;99.90
60701;DHT22;46541;49.894;10.886;2023-08-31T01:32:09;14.90;99.90
60701;DHT22;46541;49.894;10.886;2023-08-31T01:34:36;14.90;99.90
60701;DHT22;46541;49.894;10.886;2023-08-31T01:37:12;14.90;99.90
60701;DHT22;46541;49.894;10.886;2023-08-31T01:42:13;14.90;99.90
60701;DHT22;46541;49.894;10.886;2023-08-31T01:44:40;14.80;99.90
60701;DHT22;46541;49.894;10.886;2023-08-31T01:47:08;14.80;99.90
60701;DHT22;46541;49.894;10.886;2023-08-31T01:49:39;14.80;99.90
60701;DHT22;46541;49.894;10.886;2023-08-31T01:52:06;14.80;99.90
60701;DHT22;46541;49.894;10.886;2023-08-31T01:54:34;14.80;99.90
60701;DHT22;46541;49.894;10.886;2023-08-31T01:57:00;14.70;99.90
60701;DHT22;46541;49.894;10.886;2023-08-31T01:59:29;14.60;99.90
60701;DHT22;46541;49.894;10.886;2023-08-31T02:01:56;14.50;99.90
60701;DHT22;46541;49.894;10.886;2023-08-31T02:04:22;14.50;99.90
60701;DHT22;46541;49.894;10.886;2023-08-31T02:06:49;14.50;99.90
60701;DHT22;46541;49.894;10.886;2023-08-31T02:09:16;14.50;99.90
60701;DHT22;46541;49.894;10.886;2023-08-31T02:11:43;14.50;99.90
60701;DHT22;46541;49.894;10.886;2023-08-31T02:14:09;14.40;99.90
60701;DHT22;46541;49.894;10.886;2023-08-31T02:16:36;14.40;99.90
60701;DHT22;46541;49.894;10.886;2023-08-31T02:19:03;14.40;99.90
60701;DHT22;46541;49.894;10.886;2023-08-31T02:21:29;14.40;99.90
60701;DHT22;46541;49.894;10.886;2023-08-31T02:23:56;14.50;99.90
60701;DHT22;46541;49.894;10.886;2023-08-31T02:26:23;14.50;99.90
60701;DHT22;46541;49.894;10.886;2023-08-31T02:28:50;14.40;99.90
60701;DHT22;46541;49.894;10.886;2023-08-31T02:31:17;14.30;99.90
60701;DHT22;46541;49.894;10.886;2023-08-31T02:33:46;14.30;99.90
60701;DHT22;46541;49.894;10.886;2023-08-31T02:36:13;14.40;99.90
60701;DHT22;46541;49.894;10.886;2023-08-31T02:38:40;14.40;99.90
60701;DHT22;46541;49.894;10.886;2023-08-31T02:41:07;14.40;99.90
60701;DHT22;46541;49.894;10.886;2023-08-31T02:43:33;14.50;99.90
60701;DHT22;46541;49.894;10.886;2023-08-31T02:46:01;14.50;99.90
60701;DHT22;46541;49.894;10.886;2023-08-31T02:48:29;14.40;99.90
60701;DHT22;46541;49.894;10.886;2023-08-31T02:50:57;14.50;99.90
60701;DHT22;46541;49.894;10.886;2023-08-31T02:53:25;14.40;99.90
60701;DHT22;46541;49.894;10.886;2023-08-31T02:55:51;14.50;99.90
60701;DHT22;46541;49.894;10.886;2023-08-31T02:58:18;14.50;99.90
60701;DHT22;46541;49.894;10.886;2023-08-31T03:00:45;14.50;99.90
60701;DHT22;46541;49.894;10.886;2023-08-31T03:03:15;14.50;99.90
60701;DHT22;46541;49.894;10.886;2023-08-31T03:05:43;14.50;99.90
60701;DHT22;46541;49.894;10.886;2023-08-31T03:08:11;14.50;99.90
60701;DHT22;46541;49.894;10.886;2023-08-31T03:10:38;14.50;99.90
60701;DHT22;46541;49.894;10.886;2023-08-31T03:13:05;14.50;99.90
60701;DHT22;46541;49.894;10.886;2023-08-31T03:15:32;14.60;99.90
60701;DHT22;46541;49.894;10.886;2023-08-31T03:18:00;14.50;99.90
60701;DHT22;46541;49.894;10.886;2023-08-31T03:20:27;14.60;99.90
60701;DHT22;46541;49.894;10.886;2023-08-31T03:22:54;14.60;99.90
60701;DHT22;46541;49.894;10.886;2023-08-31T03:25:21;14.60;99.90
60701;DHT22;46541;49.894;10.886;2023-08-31T03:27:47;14.60;99.90
60701;DHT22;46541;49.894;10.886;2023-08-31T03:30:14;14.60;99.90
60701;DHT22;46541;49.894;10.886;2023-08-31T03:32:41;14.60;99.90
60701;DHT22;46541;49.894;10.886;2023-08-31T03:35:09;14.60;99.90
60701;DHT22;46541;49.894;10.886;2023-08-31T03:37:35;14.60;99.90
60701;DHT22;46541;49.894;10.886;2023-08-31T03:40:02;14.60;99.90
60701;DHT22;46541;49.894;10.886;2023-08-31T03:42:30;14.60;99.90
60701;DHT22;46541;49.894;10.886;2023-08-31T03:44:57;14.50;99.90
60701;DHT22;46541;49.894;10.886;2023-08-31T03:47:24;14.50;99.90
60701;DHT22;46541;49.894;10.886;2023-08-31T03:49:51;14.60;99.90
60701;DHT22;46541;49.894;10.886;2023-08-31T03:52:18;14.60;99.90
60701;DHT22;46541;49.894;10.886;2023-08-31T03:54:44;14.60;99.90
60701;DHT22;46541;49.894;10.886;2023-08-31T03:57:11;14.60;99.90
60701;DHT22;46541;49.894;10.886;2023-08-31T03:59:38;14.70;99.90
60701;DHT22;46541;49.894;10.886;2023-08-31T04:02:05;14.70;99.90
60701;DHT22;46541;49.894;10.886;2023-08-31T04:04:31;14.70;99.90
60701;DHT22;46541;49.894;10.886;2023-08-31T04:06:58;14.70;99.90
60701;DHT22;46541;49.894;10.886;2023-08-31T04:09:25;14.70;99.90
60701;DHT22;46541;49.894;10.886;2023-08-31T04:11:52;14.70;99.90
60701;DHT22;46541;49.894;10.886;2023-08-31T04:14:19;14.70;99.90
60701;DHT22;46541;49.894;10.886;2023-08-31T04:16:45;14.70;99.90
60701;DHT22;46541;49.894;10.886;2023-08-31T04:19:16;14.80;99.90
60701;DHT22;46541;49.894;10.886;2023-08-31T04:21:44;14.80;99.90
60701;DHT22;46541;49.894;10.886;2023-08-31T04:24:10;14.80;99.90
60701;DHT22;46541;49.894;10.886;2023-08-31T04:26:37;14.80;99.90
60701;DHT22;46541;49.894;10.886;2023-08-31T04:29:04;14.80;99.90
60701;DHT22;46541;49.894;10.886;2023-08-31T04:31:32;14.80;99.90
60701;DHT22;46541;49.894;10.886;2023-08-31T04:33:59;14.80;99.90
60701;DHT22;46541;49.894;10.886;2023-08-31T04:36:26;14.70;99.90
60701;DHT22;46541;49.894;10.886;2023-08-31T04:38:53;14.70;99.90
60701;DHT22;46541;49.894;10.886;2023-08-31T04:41:19;14.60;99.90
60701;DHT22;46541;49.894;10.886;2023-08-31T04:43:46;14.50;99.90
60701;DHT22;46541;49.894;10.886;2023-08-31T04:46:16;14.50;99.90
60701;DHT22;46541;49.894;10.886;2023-08-31T04:48:43;14.50;99.90
60701;DHT22;46541;49.894;10.886;2023-08-31T04:51:30;14.50;99.90
60701;DHT22;46541;49.894;10.886;2023-08-31T04:53:59;14.50;99.90
60701;DHT22;46541;49.894;10.886;2023-08-31T04:56:31;14.50;99.90
60701;DHT22;46541;49.894;10.886;2023-08-31T04:58:59;14.50;99.90
60701;DHT22;46541;49.894;10.886;2023-08-31T05:01:26;14.50;99.90
60701;DHT22;46541;49.894;10.886;2023-08-31T05:03:53;14.50;99.90
60701;DHT22;46541;49.894;10.886;2023-08-31T05:06:20;14.50;99.90
60701;DHT22;46541;49.894;10.886;2023-08-31T05:08:47;14.50;99.90
60701;DHT22;46541;49.894;10.886;2023-08-31T05:11:15;14.50;99.90
60701;DHT22;46541;49.894;10.886;2023-08-31T05:13:41;14.50;99.90
60701;DHT22;46541;49.894;10.886;2023-08-31T05:16:09;14.50;99.90
60701;DHT22;46541;49.894;10.886;2023-08-31T05:18:37;14.60;99.90
60701;DHT22;46541;49.894;10.886;2023-08-31T05:21:04;14.60;99.90
60701;DHT22;46541;49.894;10.886;2023-08-31T05:23:30;14.60;99.90
60701;DHT22;46541;49.894;10.886;2023-08-31T05:25:58;14.60;99.90
60701;DHT22;46541;49.894;10.886;2023-08-31T05:28:25;14.60;99.90
60701;DHT22;46541;49.894;10.886;2023-08-31T05:30:53;14.60;99.90
60701;DHT22;46541;49.894;10.886;2023-08-31T05:33:20;14.60;99.90
60701;DHT22;46541;49.894;10.886;2023-08-31T05:35:48;14.60;99.90
60701;DHT22;46541;49.894;10.886;2023-08-31T05:38:15;14.70;99.90
60701;DHT22;46541;49.894;10.886;2023-08-31T05:40:42;14.70;99.90
60701;DHT22;46541;49.894;10.886;2023-08-31T05:43:16;14.70;99.90
60701;DHT22;46541;49.894;10.886;2023-08-31T05:45:43;14.80;99.90
60701;DHT22;46541;49.894;10.886;2023-08-31T05:48:09;14.80;99.90
60701;DHT22;46541;49.894;10.886;2023-08-31T05:50:36;14.90;99.90
60701;DHT22;46541;49.894;10.886;2023-08-31T05:53:04;14.90;99.90
60701;DHT22;46541;49.894;10.886;2023-08-31T05:55:31;14.90;99.90
60701;DHT22;46541;49.894;10.886;2023-08-31T05:57:59;15.00;99.90
60701;DHT22;46541;49.894;10.886;2023-08-31T06:00:27;15.10;99.90
60701;DHT22;46541;49.894;10.886;2023-08-31T06:02:54;15.10;99.90
60701;DHT22;46541;49.894;10.886;2023-08-31T06:05:21;15.10;99.90
60701;DHT22;46541;49.894;10.886;2023-08-31T06:07:48;15.20;99.90
60701;DHT22;46541;49.894;10.886;2023-08-31T06:10:15;15.30;99.90
60701;DHT22;46541;49.894;10.886;2023-08-31T06:12:42;15.30;99.90
60701;DHT22;46541;49.894;10.886;2023-08-31T06:15:09;15.50;99.90
60701;DHT22;46541;49.894;10.886;2023-08-31T06:17:36;15.50;99.90
60701;DHT22;46541;49.894;10.886;2023-08-31T06:20:03;15.60;99.90
60701;DHT22;46541;49.894;10.886;2023-08-31T06:22:32;15.70;99.90
60701;DHT22;46541;49.894;10.886;2023-08-31T06:24:58;15.70;99.90
60701;DHT22;46541;49.894;10.886;2023-08-31T06:27:25;15.70;99.90
60701;DHT22;46541;49.894;10.886;2023-08-31T06:29:52;15.80;99.90
60701;DHT22;46541;49.894;10.886;2023-08-31T06:32:19;15.80;99.90
60701;DHT22;46541;49.894;10.886;2023-08-31T06:34:46;15.80;99.90
60701;DHT22;46541;49.894;10.886;2023-08-31T06:37:13;15.80;99.90
60701;DHT22;46541;49.894;10.886;2023-08-31T06:39:39;15.90;99.90
60701;DHT22;46541;49.894;10.886;2023-08-31T06:42:07;16.00;99.90
60701;DHT22;46541;49.894;10.886;2023-08-31T06:44:34;16.10;99.90
60701;DHT22;46541;49.894;10.886;2023-08-31T06:47:01;16.30;99.90
60701;DHT22;46541;49.894;10.886;2023-08-31T06:49:28;16.40;99.90
60701;DHT22;46541;49.894;10.886;2023-08-31T06:51:56;16.40;99.90
60701;DHT22;46541;49.894;10.886;2023-08-31T06:54:23;16.40;99.90
60701;DHT22;46541;49.894;10.886;2023-08-31T06:56:50;16.40;99.90
60701;DHT22;46541;49.894;10.886;2023-08-31T06:59:17;16.30;99.90
60701;DHT22;46541;49.894;10.886;2023-08-31T07:01:43;16.20;99.90
60701;DHT22;46541;49.894;10.886;2023-08-31T07:04:10;16.20;99.90
60701;DHT22;46541;49.894;10.886;2023-08-31T07:06:37;16.30;99.90
60701;DHT22;46541;49.894;10.886;2023-08-31T07:09:04;16.30;99.90
60701;DHT22;46541;49.894;10.886;2023-08-31T07:11:33;16.30;99.90
60701;DHT22;46541;49.894;10.886;2023-08-31T07:14:00;16.30;99.90
60701;DHT22;46541;49.894;10.886;2023-08-31T07:16:26;16.30;99.90
60701;DHT22;46541;49.894;10.886;2023-08-31T07:18:53;16.40;99.90
60701;DHT22;46541;49.894;10.886;2023-08-31T07:21:20;16.50;99.90
60701;DHT22;46541;49.894;10.886;2023-08-31T07:23:47;16.50;99.90
60701;DHT22;46541;49.894;10.886;2023-08-31T07:26:14;16.80;99.90
60701;DHT22;46541;49.894;10.886;2023-08-31T07:28:42;16.90;99.90
60701;DHT22;46541;49.894;10.886;2023-08-31T07:31:09;17.20;99.90
60701;DHT22;46541;49.894;10.886;2023-08-31T07:33:36;17.50;99.90
60701;DHT22;46541;49.894;10.886;2023-08-31T07:36:05;17.60;99.90
60701;DHT22;46541;49.894;10.886;2023-08-31T07:38:33;17.70;99.90
60701;DHT22;46541;49.894;10.886;2023-08-31T07:41:00;17.70;99.90
60701;DHT22;46541;49.894;10.886;2023-08-31T07:43:27;17.90;99.90
60701;DHT22;46541;49.894;10.886;2023-08-31T07:45:54;18.10;99.90
60701;DHT22;46541;49.894;10.886;2023-08-31T07:48:21;18.20;99.90
60701;DHT22;46541;49.894;10.886;2023-08-31T07:50:48;18.60;99.90
60701;DHT22;46541;49.894;10.886;2023-08-31T07:53:15;18.90;99.90
60701;DHT22;46541;49.894;10.886;2023-08-31T07:55:51;19.00;99.90
60701;DHT22;46541;49.894;10.886;2023-08-31T07:58:19;19.60;99.90
60701;DHT22;46541;49.894;10.886;2023-08-31T08:00:45;20.00;99.90
60701;DHT22;46541;49.894;10.886;2023-08-31T08:03:12;20.10;99.90
60701;DHT22;46541;49.894;10.886;2023-08-31T08:05:40;20.30;99.90
60701;DHT22;46541;49.894;10.886;2023-08-31T08:08:07;20.60;99.90
60701;DHT22;46541;49.894;10.886;2023-08-31T08:10:34;20.80;99.90
60701;DHT22;46541;49.894;10.886;2023-08-31T08:13:01;20.30;99.90
60701;DHT22;46541;49.894;10.886;2023-08-31T08:15:28;20.10;99.90
60701;DHT22;46541;49.894;10.886;2023-08-31T08:17:54;20.20;99.90
60701;DHT22;46541;49.894;10.886;2023-08-31T08:20:23;20.20;99.90
60701;DHT22;46541;49.894;10.886;2023-08-31T08:22:50;20.40;99.90
60701;DHT22;46541;49.894;10.886;2023-08-31T08:25:20;20.00;99.90
60701;DHT22;46541;49.894;10.886;2023-08-31T08:27:47;19.70;99.90
60701;DHT22;46541;49.894;10.886;2023-08-31T08:30:15;19.60;99.90
60701;DHT22;46541;49.894;10.886;2023-08-31T08:32:45;19.30;99.90
60701;DHT22;46541;49.894;10.886;2023-08-31T08:35:12;19.10;99.90
60701;DHT22;46541;49.894;10.886;2023-08-31T08:37:40;19.00;99.90
60701;DHT22;46541;49.894;10.886;2023-08-31T08:40:07;18.80;99.90
60701;DHT22;46541;49.894;10.886;2023-08-31T08:42:39;18.50;99.90
60701;DHT22;46541;49.894;10.886;2023-08-31T08:45:12;18.10;99.90
60701;DHT22;46541;49.894;10.886;2023-08-31T08:47:46;18.30;99.90
60701;DHT22;46541;49.894;10.886;2023-08-31T08:50:13;18.50;99.90
60701;DHT22;46541;49.894;10.886;2023-08-31T08:52:41;18.70;99.90
60701;DHT22;46541;49.894;10.886;2023-08-31T08:55:09;19.30;99.90
60701;DHT22;46541;49.894;10.886;2023-08-31T08:57:36;19.80;99.90
60701;DHT22;46541;49.894;10.886;2023-08-31T09:00:03;20.30;99.90
60701;DHT22;46541;49.894;10.886;2023-08-31T09:02:31;20.60;99.90
60701;DHT22;46541;49.894;10.886;2023-08-31T09:04:58;20.40;99.90
60701;DHT22;46541;49.894;10.886;2023-08-31T09:07:25;20.00;99.90
60701;DHT22;46541;49.894;10.886;2023-08-31T09:09:55;19.70;99.90
60701;DHT22;46541;49.894;10.886;2023-08-31T09:12:23;19.80;99.90
60701;DHT22;46541;49.894;10.886;2023-08-31T09:14:58;20.10;99.90
60701;DHT22;46541;49.894;10.886;2023-08-31T09:17:25;20.20;99.90
60701;DHT22;46541;49.894;10.886;2023-08-31T09:20:02;20.50;99.90
60701;DHT22;46541;49.894;10.886;2023-08-31T09:22:32;20.80;99.90
60701;DHT22;46541;49.894;10.886;2023-08-31T09:24:59;21.00;99.90
60701;DHT22;46541;49.894;10.886;2023-08-31T09:27:26;21.10;99.90
60701;DHT22;46541;49.894;10.886;2023-08-31T09:29:56;21.40;99.90
60701;DHT22;46541;49.894;10.886;2023-08-31T09:32:23;21.30;98.90
60701;DHT22;46541;49.894;10.886;2023-08-31T09:34:50;21.00;99.70
60701;DHT22;46541;49.894;10.886;2023-08-31T09:37:32;20.80;99.60
60701;DHT22;46541;49.894;10.886;2023-08-31T09:40:04;20.50;99.00
60701;DHT22;46541;49.894;10.886;2023-08-31T09:42:37;20.90;99.10
60701;DHT22;46541;49.894;10.886;2023-08-31T09:45:05;21.20;98.10
60701;DHT22;46541;49.894;10.886;2023-08-31T09:47:33;21.50;97.90
60701;DHT22;46541;49.894;10.886;2023-08-31T09:50:02;21.70;97.10
60701;DHT22;46541;49.894;10.886;2023-08-31T09:52:30;21.70;98.10
60701;DHT22;46541;49.894;10.886;2023-08-31T09:54:58;21.20;98.40
60701;DHT22;46541;49.894;10.886;2023-08-31T09:57:27;21.30;97.60
60701;DHT22;46541;49.894;10.886;2023-08-31T10:00:12;21.40;96.80
60701;DHT22;46541;49.894;10.886;2023-08-31T10:02:43;21.50;95.80
60701;DHT22;46541;49.894;10.886;2023-08-31T10:05:10;21.30;95.40
60701;DHT22;46541;49.894;10.886;2023-08-31T10:07:37;21.10;96.10
60701;DHT22;46541;49.894;10.886;2023-08-31T10:10:05;21.00;96.00
60701;DHT22;46541;49.894;10.886;2023-08-31T10:12:33;21.30;96.20
60701;DHT22;46541;49.894;10.886;2023-08-31T10:15:01;21.60;96.30
60701;DHT22;46541;49.894;10.886;2023-08-31T10:17:29;21.70;96.20
60701;DHT22;46541;49.894;10.886;2023-08-31T10:19:56;22.00;95.70
60701;DHT22;46541;49.894;10.886;2023-08-31T10:22:23;21.80;95.70
60701;DHT22;46541;49.894;10.886;2023-08-31T10:25:01;21.50;94.80
60701;DHT22;46541;49.894;10.886;2023-08-31T10:27:43;21.60;95.20
60701;DHT22;46541;49.894;10.886;2023-08-31T10:33:19;21.20;95.70
60701;DHT22;46541;49.894;10.886;2023-08-31T10:38:30;20.30;96.80
60701;DHT22;46541;49.894;10.886;2023-08-31T10:41:18;20.30;97.70
60701;DHT22;46541;49.894;10.886;2023-08-31T10:49:01;20.40;97.40
60701;DHT22;46541;49.894;10.886;2023-08-31T10:51:31;20.40;97.90
60701;DHT22;46541;49.894;10.886;2023-08-31T10:59:53;20.50;98.00
60701;DHT22;46541;49.894;10.886;2023-08-31T11:07:39;21.60;96.40
60701;DHT22;46541;49.894;10.886;2023-08-31T11:10:09;22.10;97.30
60701;DHT22;46541;49.894;10.886;2023-08-31T11:12:37;22.40;96.60
60701;DHT22;46541;49.894;10.886;2023-08-31T11:15:04;22.40;95.90
60701;DHT22;46541;49.894;10.886;2023-08-31T11:17:32;22.20;94.90
60701;DHT22;46541;49.894;10.886;2023-08-31T11:20:02;22.20;96.00
60701;DHT22;46541;49.894;10.886;2023-08-31T11:22:32;22.20;93.40
60701;DHT22;46541;49.894;10.886;2023-08-31T11:25:01;22.00;93.60
60701;DHT22;46541;49.894;10.886;2023-08-31T11:27:28;21.60;95.20
60701;DHT22;46541;49.894;10.886;2023-08-31T11:29:55;21.30;95.10
60701;DHT22;46541;49.894;10.886;2023-08-31T11:32:25;20.80;95.70
60701;DHT22;46541;49.894;10.886;2023-08-31T11:34:52;20.70;95.10
60701;DHT22;46541;49.894;10.886;2023-08-31T11:37:19;20.40;96.20
60701;DHT22;46541;49.894;10.886;2023-08-31T11:39:53;20.30;96.20
60701;DHT22;46541;49.894;10.886;2023-08-31T11:42:21;20.10;96.50
60701;DHT22;46541;49.894;10.886;2023-08-31T11:44:49;20.00;97.40
60701;DHT22;46541;49.894;10.886;2023-08-31T11:47:16;20.10;97.60
60701;DHT22;46541;49.894;10.886;2023-08-31T11:49:44;20.30;97.40
60701;DHT22;46541;49.894;10.886;2023-08-31T11:52:13;20.60;96.70
60701;DHT22;46541;49.894;10.886;2023-08-31T11:54:43;20.70;97.20
60701;DHT22;46541;49.894;10.886;2023-08-31T11:57:10;20.50;97.00
60701;DHT22;46541;49.894;10.886;2023-08-31T11:59:38;20.40;96.90
60701;DHT22;46541;49.894;10.886;2023-08-31T12:02:07;20.50;97.50
60701;DHT22;46541;49.894;10.886;2023-08-31T12:04:44;20.60;97.30
60701;DHT22;46541;49.894;10.886;2023-08-31T12:07:12;20.50;97.10
60701;DHT22;46541;49.894;10.886;2023-08-31T12:09:42;20.30;97.70
60701;DHT22;46541;49.894;10.886;2023-08-31T12:12:13;20.00;97.10
60701;DHT22;46541;49.894;10.886;2023-08-31T12:14:40;19.70;97.30
60701;DHT22;46541;49.894;10.886;2023-08-31T12:17:08;19.80;97.30
60701;DHT22;46541;49.894;10.886;2023-08-31T12:19:39;19.70;97.70
60701;DHT22;46541;49.894;10.886;2023-08-31T12:22:07;19.70;97.20
60701;DHT22;46541;49.894;10.886;2023-08-31T12:24:40;19.80;96.80
60701;DHT22;46541;49.894;10.886;2023-08-31T12:27:08;19.80;97.00
60701;DHT22;46541;49.894;10.886;2023-08-31T12:29:35;20.10;97.00
60701;DHT22;46541;49.894;10.886;2023-08-31T12:32:02;20.40;96.90
60701;DHT22;46541;49.894;10.886;2023-08-31T12:34:29;20.60;95.80
60701;DHT22;46541;49.894;10.886;2023-08-31T12:36:59;20.60;95.70
60701;DHT22;46541;49.894;10.886;2023-08-31T12:39:27;21.00;95.60
60701;DHT22;46541;49.894;10.886;2023-08-31T12:41:54;21.50;95.20
60701;DHT22;46541;49.894;10.886;2023-08-31T12:44:31;22.10;95.40
60701;DHT22;46541;49.894;10.886;2023-08-31T12:46:58;21.90;93.40
60701;DHT22;46541;49.894;10.886;2023-08-31T12:49:24;21.70;93.60
60701;DHT22;46541;49.894;10.886;2023-08-31T12:51:51;21.60;93.20
60701;DHT22;46541;49.894;10.886;2023-08-31T12:54:18;21.80;93.20
60701;DHT22;46541;49.894;10.886;2023-08-31T12:56:45;21.80;92.50
60701;DHT22;46541;49.894;10.886;2023-08-31T12:59:12;21.70;93.40
60701;DHT22;46541;49.894;10.886;2023-08-31T13:01:39;21.70;92.70
60701;DHT22;46541;49.894;10.886;2023-08-31T13:04:05;21.50;92.50
60701;DHT22;46541;49.894;10.886;2023-08-31T13:06:32;21.30;93.90
60701;DHT22;46541;49.894;10.886;2023-08-31T13:08:59;21.00;92.50
60701;DHT22;46541;49.894;10.886;2023-08-31T13:11:26;20.90;93.30
60701;DHT22;46541;49.894;10.886;2023-08-31T13:13:52;20.70;93.70
60701;DHT22;46541;49.894;10.886;2023-08-31T13:16:19;20.70;94.00
60701;DHT22;46541;49.894;10.886;2023-08-31T13:18:48;20.70;94.40
60701;DHT22;46541;49.894;10.886;2023-08-31T13:21:15;20.90;94.50
60701;DHT22;46541;49.894;10.886;2023-08-31T13:23:42;20.90;94.00
60701;DHT22;46541;49.894;10.886;2023-08-31T13:26:10;20.90;93.50
60701;DHT22;46541;49.894;10.886;2023-08-31T13:28:37;21.00;94.30
60701;DHT22;46541;49.894;10.886;2023-08-31T13:31:04;21.10;94.90
60701;DHT22;46541;49.894;10.886;2023-08-31T13:33:31;21.00;94.70
60701;DHT22;46541;49.894;10.886;2023-08-31T13:35:58;21.10;93.90
60701;DHT22;46541;49.894;10.886;2023-08-31T13:38:25;21.20;93.50
60701;DHT22;46541;49.894;10.886;2023-08-31T13:40:57;21.20;94.00
60701;DHT22;46541;49.894;10.886;2023-08-31T13:43:24;21.20;94.80
60701;DHT22;46541;49.894;10.886;2023-08-31T13:45:52;21.10;94.40
60701;DHT22;46541;49.894;10.886;2023-08-31T13:48:19;21.00;95.50
60701;DHT22;46541;49.894;10.886;2023-08-31T13:50:47;20.80;94.40
60701;DHT22;46541;49.894;10.886;2023-08-31T13:53:14;20.90;95.00
60701;DHT22;46541;49.894;10.886;2023-08-31T13:55:40;21.10;95.60
60701;DHT22;46541;49.894;10.886;2023-08-31T13:58:08;21.40;94.00
60701;DHT22;46541;49.894;10.886;2023-08-31T14:00:35;21.30;94.20
60701;DHT22;46541;49.894;10.886;2023-08-31T14:03:04;21.40;94.50
60701;DHT22;46541;49.894;10.886;2023-08-31T14:05:32;21.30;94.50
60701;DHT22;46541;49.894;10.886;2023-08-31T14:08:00;21.60;94.10
60701;DHT22;46541;49.894;10.886;2023-08-31T14:10:28;21.80;93.50
60701;DHT22;46541;49.894;10.886;2023-08-31T14:12:55;21.80;93.20
60701;DHT22;46541;49.894;10.886;2023-08-31T14:15:21;21.80;93.90
60701;DHT22;46541;49.894;10.886;2023-08-31T14:17:50;21.80;93.80
60701;DHT22;46541;49.894;10.886;2023-08-31T14:20:19;21.90;93.50
60701;DHT22;46541;49.894;10.886;2023-08-31T14:22:46;21.90;93.30
60701;DHT22;46541;49.894;10.886;2023-08-31T14:25:13;22.00;94.30
60701;DHT22;46541;49.894;10.886;2023-08-31T14:27:41;22.10;94.30
60701;DHT22;46541;49.894;10.886;2023-08-31T14:30:08;22.20;93.90
60701;DHT22;46541;49.894;10.886;2023-08-31T14:32:34;22.30;93.00
60701;DHT22;46541;49.894;10.886;2023-08-31T14:35:01;22.30;92.30
60701;DHT22;46541;49.894;10.886;2023-08-31T14:37:28;22.10;91.30
60701;DHT22;46541;49.894;10.886;2023-08-31T14:39:55;21.90;91.70
60701;DHT22;46541;49.894;10.886;2023-08-31T14:42:21;21.80;90.50
60701;DHT22;46541;49.894;10.886;2023-08-31T14:44:48;21.40;90.30
60701;DHT22;46541;49.894;10.886;2023-08-31T14:47:18;21.30;91.30
60701;DHT22;46541;49.894;10.886;2023-08-31T14:49:44;21.30;91.20
60701;DHT22;46541;49.894;10.886;2023-08-31T14:52:11;21.20;92.00
60701;DHT22;46541;49.894;10.886;2023-08-31T14:54:38;21.10;91.30
60701;DHT22;46541;49.894;10.886;2023-08-31T14:57:05;21.00;90.70
60701;DHT22;46541;49.894;10.886;2023-08-31T14:59:32;21.30;91.80
60701;DHT22;46541;49.894;10.886;2023-08-31T15:01:59;21.20;91.40
60701;DHT22;46541;49.894;10.886;2023-08-31T15:04:28;21.10;91.10
60701;DHT22;46541;49.894;10.886;2023-08-31T15:06:55;21.10;92.00
60701;DHT22;46541;49.894;10.886;2023-08-31T15:09:23;21.00;90.80
60701;DHT22;46541;49.894;10.886;2023-08-31T15:11:50;21.10;91.50
60701;DHT22;46541;49.894;10.886;2023-08-31T15:14:17;20.90;91.50
60701;DHT22;46541;49.894;10.886;2023-08-31T15:16:44;20.80;91.40
60701;DHT22;46541;49.894;10.886;2023-08-31T15:19:11;20.80;91.30
60701;DHT22;46541;49.894;10.886;2023-08-31T15:21:37;20.70;91.60
60701;DHT22;46541;49.894;10.886;2023-08-31T15:24:05;20.80;92.60
60701;DHT22;46541;49.894;10.886;2023-08-31T15:26:31;20.70;91.40
60701;DHT22;46541;49.894;10.886;2023-08-31T15:28:59;20.70;91.10
60701;DHT22;46541;49.894;10.886;2023-08-31T15:31:26;20.70;92.30
60701;DHT22;46541;49.894;10.886;2023-08-31T15:33:53;20.70;92.70
60701;DHT22;46541;49.894;10.886;2023-08-31T15:36:20;20.70;91.40
60701;DHT22;46541;49.894;10.886;2023-08-31T15:38:48;20.60;91.70
60701;DHT22;46541;49.894;10.886;2023-08-31T15:41:15;20.60;91.30
60701;DHT22;46541;49.894;10.886;2023-08-31T15:43:42;20.60;92.50
60701;DHT22;46541;49.894;10.886;2023-08-31T15:46:09;20.60;92.10